0% fanden dieses Dokument nützlich (0 Abstimmungen)
4 Ansichten9 Seiten

14

Das Dokument enthält Messdaten eines Instruments (RKL/TH/14) vom 24. bis 25. Februar 2025, einschließlich Temperatur- und Luftfeuchtigkeitswerte. Die gemessenen Temperaturen lagen zwischen 23,0 °C und 30,1 °C, während die relative Luftfeuchtigkeit zwischen 41,5 % und 81,2 % variierte. Die Werte wurden in einem Zeitrahmen von zwei Tagen erfasst, wobei verschiedene Messpunkte dokumentiert sind.

Hochgeladen von

marketingrklabs
Copyright
© All Rights Reserved
Wir nehmen die Rechte an Inhalten ernst. Wenn Sie vermuten, dass dies Ihr Inhalt ist, beanspruchen Sie ihn hier.
Verfügbare Formate
Als XLS, PDF, TXT herunterladen oder online auf Scribd lesen
0% fanden dieses Dokument nützlich (0 Abstimmungen)
4 Ansichten9 Seiten

14

Das Dokument enthält Messdaten eines Instruments (RKL/TH/14) vom 24. bis 25. Februar 2025, einschließlich Temperatur- und Luftfeuchtigkeitswerte. Die gemessenen Temperaturen lagen zwischen 23,0 °C und 30,1 °C, während die relative Luftfeuchtigkeit zwischen 41,5 % und 81,2 % variierte. Die Werte wurden in einem Zeitrahmen von zwei Tagen erfasst, wobei verschiedene Messpunkte dokumentiert sind.

Hochgeladen von

marketingrklabs
Copyright
© All Rights Reserved
Wir nehmen die Rechte an Inhalten ernst. Wenn Sie vermuten, dass dies Ihr Inhalt ist, beanspruchen Sie ihn hier.
Verfügbare Formate
Als XLS, PDF, TXT herunterladen oder online auf Scribd lesen

Instrument name: RKL/TH/14 26-02-2025 10:17:01

Start time: 24-02-2025Minimum Maximum Mean valu Limit values


End time: no name [° 23.0 30.1 25.147 -20.0/70.0
Measuremen
no name [ 41.5 81.2 63.305 0.0/100.0
Measured values: 280
84054605

id Date/time no name[° no name[%rH]


1 24-02-2025 28.30 48.10
2 24-02-2025 28.40 48.90
3 24-02-2025 28.30 49.50
4 24-02-2025 28.30 49.50
5 24-02-2025 28.50 46.20
6 24-02-2025 28.80 43.10
7 24-02-2025 29.20 44.20
8 24-02-2025 29.60 44.80
9 24-02-2025 30.00 41.90
10 24-02-2025 30.10 41.50
11 24-02-2025 29.10 46.20
12 24-02-2025 25.30 59.80
13 24-02-2025 23.80 64.30
14 24-02-2025 23.30 66.70
15 24-02-2025 23.10 66.60
16 24-02-2025 23.10 67.20
17 24-02-2025 23.10 68.20
18 24-02-2025 23.10 68.10
19 24-02-2025 23.00 67.40
20 24-02-2025 23.00 68.10
21 24-02-2025 23.00 68.20
22 24-02-2025 23.00 67.70
23 24-02-2025 23.00 67.90
24 24-02-2025 23.00 68.60
25 24-02-2025 23.00 68.80
26 24-02-2025 23.00 68.00
27 24-02-2025 23.00 68.10
28 24-02-2025 23.00 68.90
29 24-02-2025 23.00 68.90
30 24-02-2025 23.00 68.60
31 24-02-2025 23.00 68.20
32 24-02-2025 23.00 68.10
33 24-02-2025 23.00 68.90
34 24-02-2025 23.00 68.80
35 24-02-2025 23.10 68.70
36 24-02-2025 23.00 68.10
37 24-02-2025 23.00 68.30
38 24-02-2025 23.00 69.80
39 24-02-2025 23.00 69.10
40 24-02-2025 23.00 68.30
41 24-02-2025 23.00 69.30
42 24-02-2025 23.00 69.80
43 24-02-2025 23.00 69.40
44 24-02-2025 23.00 68.90
45 24-02-2025 23.00 68.30
46 24-02-2025 23.00 68.70
47 24-02-2025 23.00 68.60
48 24-02-2025 23.00 68.80
49 24-02-2025 23.00 68.80
50 24-02-2025 23.00 69.40
51 24-02-2025 23.00 68.60
52 24-02-2025 23.00 68.80
53 24-02-2025 23.00 69.70
54 24-02-2025 23.00 69.20
55 24-02-2025 23.00 68.50
56 24-02-2025 23.00 69.40
57 24-02-2025 23.00 68.90
58 24-02-2025 23.00 68.80
59 24-02-2025 23.00 69.60
60 24-02-2025 23.00 70.10
61 24-02-2025 23.00 69.30
62 24-02-2025 23.00 68.60
63 24-02-2025 23.00 68.40
64 24-02-2025 23.00 69.30
65 24-02-2025 23.00 69.90
66 24-02-2025 23.00 68.90
67 24-02-2025 23.00 69.30
68 24-02-2025 23.00 70.00
69 24-02-2025 23.00 69.10
70 24-02-2025 23.00 68.30
71 24-02-2025 23.00 68.50
72 24-02-2025 23.00 69.30
73 24-02-2025 23.00 68.70
74 24-02-2025 23.00 68.90
75 24-02-2025 23.00 69.10
76 24-02-2025 23.00 68.80
77 25-02-2025 23.00 69.80
78 25-02-2025 23.00 69.40
79 25-02-2025 23.00 68.50
80 25-02-2025 23.00 69.30
81 25-02-2025 23.00 69.40
82 25-02-2025 23.00 68.70
83 25-02-2025 23.00 68.70
84 25-02-2025 23.00 68.90
85 25-02-2025 23.00 69.80
86 25-02-2025 23.00 68.60
87 25-02-2025 23.00 69.20
88 25-02-2025 23.00 68.60
89 25-02-2025 23.00 68.90
90 25-02-2025 23.00 69.00
91 25-02-2025 23.00 69.70
92 25-02-2025 23.00 70.10
93 25-02-2025 23.00 69.20
94 25-02-2025 23.00 69.30
95 25-02-2025 23.00 69.30
96 25-02-2025 23.00 69.20
97 25-02-2025 23.00 68.90
98 25-02-2025 23.00 69.50
99 25-02-2025 23.00 70.20
100 25-02-2025 23.00 69.40
101 25-02-2025 23.00 68.80
102 25-02-2025 23.00 69.00
103 25-02-2025 23.00 70.10
104 25-02-2025 23.00 69.10
105 25-02-2025 23.00 68.80
106 25-02-2025 23.00 69.00
107 25-02-2025 23.00 69.20
108 25-02-2025 23.00 68.90
109 25-02-2025 23.00 68.80
110 25-02-2025 23.00 69.10
111 25-02-2025 23.00 69.30
112 25-02-2025 23.00 69.00
113 25-02-2025 23.00 68.50
114 25-02-2025 23.00 68.50
115 25-02-2025 23.00 68.70
116 25-02-2025 23.00 68.80
117 25-02-2025 23.00 69.40
118 25-02-2025 23.00 68.90
119 25-02-2025 23.00 69.50
120 25-02-2025 23.00 70.10
121 25-02-2025 23.00 69.70
122 25-02-2025 23.00 68.80
123 25-02-2025 23.00 69.20
124 25-02-2025 23.00 69.40
125 25-02-2025 23.00 69.70
126 25-02-2025 23.00 70.40
127 25-02-2025 23.00 69.40
128 25-02-2025 23.00 69.00
129 25-02-2025 23.00 68.60
130 25-02-2025 23.00 69.30
131 25-02-2025 23.00 69.30
132 25-02-2025 23.00 69.80
133 25-02-2025 23.00 69.40
134 25-02-2025 23.00 69.90
135 25-02-2025 23.00 68.90
136 25-02-2025 23.00 69.70
137 25-02-2025 23.00 70.00
138 25-02-2025 23.00 69.10
139 25-02-2025 23.00 69.00
140 25-02-2025 23.00 69.40
141 25-02-2025 23.00 69.10
142 25-02-2025 23.00 69.60
143 25-02-2025 23.00 69.50
144 25-02-2025 23.00 69.40
145 25-02-2025 23.00 68.60
146 25-02-2025 23.00 69.10
147 25-02-2025 23.00 69.40
148 25-02-2025 23.00 69.10
149 25-02-2025 23.00 68.90
150 25-02-2025 23.00 68.90
151 25-02-2025 23.00 69.50
152 25-02-2025 23.00 69.60
153 25-02-2025 23.00 70.00
154 25-02-2025 23.00 70.30
155 25-02-2025 23.00 69.90
156 25-02-2025 23.00 69.80
157 25-02-2025 23.00 69.60
158 25-02-2025 23.00 69.10
159 25-02-2025 23.00 69.70
160 25-02-2025 23.00 70.60
161 25-02-2025 23.00 70.30
162 25-02-2025 23.00 69.90
163 25-02-2025 23.00 68.80
164 25-02-2025 23.00 69.60
165 25-02-2025 23.00 70.10
166 25-02-2025 23.00 69.30
167 25-02-2025 23.00 69.20
168 25-02-2025 23.00 69.30
169 25-02-2025 23.00 70.00
170 25-02-2025 23.00 69.40
171 25-02-2025 23.00 69.30
172 25-02-2025 23.00 69.30
173 25-02-2025 23.00 69.70
174 25-02-2025 23.00 69.50
175 25-02-2025 23.00 69.50
176 25-02-2025 23.00 69.60
177 25-02-2025 23.00 69.30
178 25-02-2025 23.00 69.80
179 25-02-2025 26.00 81.20
180 25-02-2025 28.10 72.30
181 25-02-2025 27.60 61.00
182 25-02-2025 25.60 58.40
183 25-02-2025 25.00 56.30
184 25-02-2025 25.00 54.80
185 25-02-2025 25.10 52.90
186 25-02-2025 25.90 50.70
187 25-02-2025 26.90 49.10
188 25-02-2025 27.90 49.50
189 25-02-2025 28.30 50.30
190 25-02-2025 28.50 52.00
191 25-02-2025 28.80 51.40
192 25-02-2025 28.90 49.30
193 25-02-2025 29.10 50.00
194 25-02-2025 29.10 49.40
195 25-02-2025 29.10 49.30
196 25-02-2025 29.10 49.70
197 25-02-2025 29.10 51.40
198 25-02-2025 29.20 52.40
199 25-02-2025 29.20 52.60
200 25-02-2025 29.20 52.80
201 25-02-2025 29.20 52.40
202 25-02-2025 29.20 51.90
203 25-02-2025 29.10 52.20
204 25-02-2025 29.10 52.30
205 25-02-2025 29.10 52.20
206 25-02-2025 29.10 51.80
207 25-02-2025 29.10 51.90
208 25-02-2025 29.00 51.80
209 25-02-2025 29.00 51.40
210 25-02-2025 29.00 51.20
211 25-02-2025 29.00 51.30
212 25-02-2025 29.00 51.60
213 25-02-2025 29.00 51.50
214 25-02-2025 28.90 51.50
215 25-02-2025 28.90 51.70
216 25-02-2025 28.90 52.00
217 25-02-2025 28.90 52.20
218 25-02-2025 28.90 52.40
219 25-02-2025 28.90 52.60
220 25-02-2025 28.90 52.80
221 26-02-2025 28.80 53.00
222 26-02-2025 28.80 53.20
223 26-02-2025 28.80 53.40
224 26-02-2025 28.80 53.40
225 26-02-2025 28.70 53.40
226 26-02-2025 28.70 53.50
227 26-02-2025 28.70 53.60
228 26-02-2025 28.60 53.70
229 26-02-2025 28.60 53.70
230 26-02-2025 28.60 53.80
231 26-02-2025 28.50 53.90
232 26-02-2025 28.50 54.00
233 26-02-2025 28.50 54.00
234 26-02-2025 28.50 54.00
235 26-02-2025 28.40 54.10
236 26-02-2025 28.40 54.30
237 26-02-2025 28.40 54.40
238 26-02-2025 28.30 54.60
239 26-02-2025 28.30 54.70
240 26-02-2025 28.30 54.90
241 26-02-2025 28.30 55.10
242 26-02-2025 28.20 55.40
243 26-02-2025 28.20 55.70
244 26-02-2025 28.20 56.10
245 26-02-2025 28.20 56.40
246 26-02-2025 28.20 56.70
247 26-02-2025 28.20 57.00
248 26-02-2025 28.10 57.20
249 26-02-2025 28.10 57.40
250 26-02-2025 28.10 57.60
251 26-02-2025 28.10 57.80
252 26-02-2025 28.00 58.10
253 26-02-2025 28.00 58.10
254 26-02-2025 28.00 58.50
255 26-02-2025 27.90 58.90
256 26-02-2025 27.90 59.10
257 26-02-2025 27.90 59.60
258 26-02-2025 27.80 59.70
259 26-02-2025 27.80 60.00
260 26-02-2025 27.80 60.10
261 26-02-2025 27.80 60.30
262 26-02-2025 27.70 60.50
263 26-02-2025 27.70 60.90
264 26-02-2025 27.70 61.10
265 26-02-2025 27.60 61.50
266 26-02-2025 27.60 61.70
267 26-02-2025 27.60 61.70
268 26-02-2025 27.50 61.50
269 26-02-2025 27.50 61.90
270 26-02-2025 27.50 61.90
271 26-02-2025 27.50 62.20
272 26-02-2025 27.60 62.50
273 26-02-2025 27.70 63.70
274 26-02-2025 27.70 64.50
275 26-02-2025 27.80 64.70
276 26-02-2025 27.90 64.20
277 26-02-2025 27.80 54.00
278 26-02-2025 28.00 55.50
279 26-02-2025 28.10 56.00
280 26-02-2025 28.30 68.40

Das könnte Ihnen auch gefallen